Avalon, Wisconsin
Current Conditions -  °F | °C
As of 6:45 PM on Friday 24 Oct 2014 (Local Time) from KJVL Reporting Station
Overcast Overcast  
Wind Chill: 14°   Ceiling: 9000
Heat Index: 14°   Visibility: 10mi
Dew Point: 10°   Wind: 6mph
Humidity: 77%   Direction: 140°SE
Pressure: 29.92"   Gusts: NA
Location:  42.63°N, 88.87°W
Report Text: KJVL 242345Z 14005KT 10SM SCT050 OVC090 14/10 A2992
Loading
Personal Weather Stations






























Interactive Weather Map New forecast layout! Learn more

10-Day Weather Forecast

Advertisements
Track Severe Weather on mobile